sensor_id;sensor_type;location;lat;lon;timestamp;temperature;humidity
20528;DHT22;23612;50.894;10.700;2023-05-16T00:00:23;10.90;99.90
20528;DHT22;23612;50.894;10.700;2023-05-16T00:02:49;10.90;99.90
20528;DHT22;23612;50.894;10.700;2023-05-16T00:05:15;10.90;99.90
20528;DHT22;23612;50.894;10.700;2023-05-16T00:07:43;10.80;99.90
20528;DHT22;23612;50.894;10.700;2023-05-16T00:10:09;10.80;99.90
20528;DHT22;23612;50.894;10.700;2023-05-16T00:12:36;10.80;99.90
20528;DHT22;23612;50.894;10.700;2023-05-16T00:15:02;10.80;99.90
20528;DHT22;23612;50.894;10.700;2023-05-16T00:17:29;10.80;99.90
20528;DHT22;23612;50.894;10.700;2023-05-16T00:19:55;10.90;99.90
20528;DHT22;23612;50.894;10.700;2023-05-16T00:22:23;11.00;99.90
20528;DHT22;23612;50.894;10.700;2023-05-16T00:24:48;11.00;99.90
20528;DHT22;23612;50.894;10.700;2023-05-16T00:27:14;11.00;99.90
20528;DHT22;23612;50.894;10.700;2023-05-16T00:29:39;11.00;99.90
20528;DHT22;23612;50.894;10.700;2023-05-16T00:32:05;11.10;99.90
20528;DHT22;23612;50.894;10.700;2023-05-16T00:34:33;11.10;99.90
20528;DHT22;23612;50.894;10.700;2023-05-16T00:36:58;11.10;99.90
20528;DHT22;23612;50.894;10.700;2023-05-16T00:39:24;11.10;99.90
20528;DHT22;23612;50.894;10.700;2023-05-16T00:41:49;11.20;99.90
20528;DHT22;23612;50.894;10.700;2023-05-16T00:44:15;11.20;99.90
20528;DHT22;23612;50.894;10.700;2023-05-16T00:46:41;11.30;99.90
20528;DHT22;23612;50.894;10.700;2023-05-16T00:49:07;11.40;99.90
20528;DHT22;23612;50.894;10.700;2023-05-16T00:51:32;11.40;99.90
20528;DHT22;23612;50.894;10.700;2023-05-16T00:53:58;11.40;99.90
20528;DHT22;23612;50.894;10.700;2023-05-16T00:56:24;11.30;99.90
20528;DHT22;23612;50.894;10.700;2023-05-16T00:58:50;11.20;99.90
20528;DHT22;23612;50.894;10.700;2023-05-16T01:01:15;11.20;99.90
20528;DHT22;23612;50.894;10.700;2023-05-16T01:03:41;11.10;99.90
20528;DHT22;23612;50.894;10.700;2023-05-16T01:06:10;11.00;99.90
20528;DHT22;23612;50.894;10.700;2023-05-16T01:08:36;11.00;99.90
20528;DHT22;23612;50.894;10.700;2023-05-16T01:11:11;10.80;99.90
20528;DHT22;23612;50.894;10.700;2023-05-16T01:13:59;10.80;99.90
20528;DHT22;23612;50.894;10.700;2023-05-16T01:16:38;10.80;99.90
20528;DHT22;23612;50.894;10.700;2023-05-16T01:19:19;10.70;99.90
20528;DHT22;23612;50.894;10.700;2023-05-16T01:22:17;10.80;99.90
20528;DHT22;23612;50.894;10.700;2023-05-16T01:25:14;10.80;99.90
20528;DHT22;23612;50.894;10.700;2023-05-16T01:27:44;10.80;99.90
20528;DHT22;23612;50.894;10.700;2023-05-16T01:30:16;10.80;99.90
20528;DHT22;23612;50.894;10.700;2023-05-16T01:32:42;10.90;99.90
20528;DHT22;23612;50.894;10.700;2023-05-16T01:35:10;10.90;99.90
20528;DHT22;23612;50.894;10.700;2023-05-16T01:37:41;11.00;99.90
20528;DHT22;23612;50.894;10.700;2023-05-16T01:42:46;11.10;99.90
20528;DHT22;23612;50.894;10.700;2023-05-16T01:45:33;11.20;99.90
20528;DHT22;23612;50.894;10.700;2023-05-16T01:48:09;11.10;99.90
20528;DHT22;23612;50.894;10.700;2023-05-16T01:50:41;11.10;99.90
20528;DHT22;23612;50.894;10.700;2023-05-16T01:53:18;11.20;99.90
20528;DHT22;23612;50.894;10.700;2023-05-16T01:55:47;11.20;99.90
20528;DHT22;23612;50.894;10.700;2023-05-16T01:58:14;11.20;99.90
20528;DHT22;23612;50.894;10.700;2023-05-16T02:00:40;11.10;99.90
20528;DHT22;23612;50.894;10.700;2023-05-16T02:03:06;11.10;99.90
20528;DHT22;23612;50.894;10.700;2023-05-16T02:05:32;11.10;99.90
20528;DHT22;23612;50.894;10.700;2023-05-16T02:07:58;11.00;99.90
20528;DHT22;23612;50.894;10.700;2023-05-16T02:10:24;10.90;99.90
20528;DHT22;23612;50.894;10.700;2023-05-16T02:12:50;10.90;99.90
20528;DHT22;23612;50.894;10.700;2023-05-16T02:15:16;10.90;99.90
20528;DHT22;23612;50.894;10.700;2023-05-16T02:17:42;10.80;99.90
20528;DHT22;23612;50.894;10.700;2023-05-16T02:20:08;10.90;99.90
20528;DHT22;23612;50.894;10.700;2023-05-16T02:22:35;10.70;99.90
20528;DHT22;23612;50.894;10.700;2023-05-16T02:25:02;10.50;99.90
20528;DHT22;23612;50.894;10.700;2023-05-16T02:27:28;10.50;99.90
20528;DHT22;23612;50.894;10.700;2023-05-16T02:29:53;10.30;99.90
20528;DHT22;23612;50.894;10.700;2023-05-16T02:32:19;10.30;99.90
20528;DHT22;23612;50.894;10.700;2023-05-16T02:34:45;10.20;99.90
20528;DHT22;23612;50.894;10.700;2023-05-16T02:37:10;10.10;99.90
20528;DHT22;23612;50.894;10.700;2023-05-16T02:39:36;10.10;99.90
20528;DHT22;23612;50.894;10.700;2023-05-16T02:42:02;10.10;99.90
20528;DHT22;23612;50.894;10.700;2023-05-16T02:44:28;10.10;99.90
20528;DHT22;23612;50.894;10.700;2023-05-16T02:46:53;10.00;99.90
20528;DHT22;23612;50.894;10.700;2023-05-16T02:49:19;10.10;99.90
20528;DHT22;23612;50.894;10.700;2023-05-16T02:51:45;10.10;99.90
20528;DHT22;23612;50.894;10.700;2023-05-16T02:54:11;10.10;99.90
20528;DHT22;23612;50.894;10.700;2023-05-16T02:56:36;10.10;99.90
20528;DHT22;23612;50.894;10.700;2023-05-16T02:59:02;10.10;99.90
20528;DHT22;23612;50.894;10.700;2023-05-16T03:01:28;10.10;99.90
20528;DHT22;23612;50.894;10.700;2023-05-16T03:03:54;10.10;99.90
20528;DHT22;23612;50.894;10.700;2023-05-16T03:06:19;10.10;99.90
20528;DHT22;23612;50.894;10.700;2023-05-16T03:08:45;10.10;99.90
20528;DHT22;23612;50.894;10.700;2023-05-16T03:11:11;10.20;99.90
20528;DHT22;23612;50.894;10.700;2023-05-16T03:13:37;10.20;99.90
20528;DHT22;23612;50.894;10.700;2023-05-16T03:16:03;10.20;99.90
20528;DHT22;23612;50.894;10.700;2023-05-16T03:18:28;10.20;99.90
20528;DHT22;23612;50.894;10.700;2023-05-16T03:20:54;10.20;99.90
20528;DHT22;23612;50.894;10.700;2023-05-16T03:23:20;10.20;99.90
20528;DHT22;23612;50.894;10.700;2023-05-16T03:25:46;10.20;99.90
20528;DHT22;23612;50.894;10.700;2023-05-16T03:28:11;10.30;99.90
20528;DHT22;23612;50.894;10.700;2023-05-16T03:30:37;10.30;99.90
20528;DHT22;23612;50.894;10.700;2023-05-16T03:33:03;10.40;99.90
20528;DHT22;23612;50.894;10.700;2023-05-16T03:35:29;10.30;99.90
20528;DHT22;23612;50.894;10.700;2023-05-16T03:37:55;10.30;99.90
20528;DHT22;23612;50.894;10.700;2023-05-16T03:40:21;10.40;99.90
20528;DHT22;23612;50.894;10.700;2023-05-16T03:42:46;10.30;99.90
20528;DHT22;23612;50.894;10.700;2023-05-16T03:45:12;10.30;99.90
20528;DHT22;23612;50.894;10.700;2023-05-16T03:47:37;10.20;99.90
20528;DHT22;23612;50.894;10.700;2023-05-16T03:50:04;10.30;99.90
20528;DHT22;23612;50.894;10.700;2023-05-16T03:52:30;10.30;99.90
20528;DHT22;23612;50.894;10.700;2023-05-16T03:54:55;10.30;99.90
20528;DHT22;23612;50.894;10.700;2023-05-16T03:57:21;10.30;99.90
20528;DHT22;23612;50.894;10.700;2023-05-16T03:59:46;10.20;99.90
20528;DHT22;23612;50.894;10.700;2023-05-16T04:02:12;10.20;99.90
20528;DHT22;23612;50.894;10.700;2023-05-16T04:04:38;10.20;99.90
20528;DHT22;23612;50.894;10.700;2023-05-16T04:07:03;10.20;99.90
20528;DHT22;23612;50.894;10.700;2023-05-16T04:09:29;10.20;99.90
20528;DHT22;23612;50.894;10.700;2023-05-16T04:11:55;10.20;99.90
20528;DHT22;23612;50.894;10.700;2023-05-16T04:14:22;10.20;99.90
20528;DHT22;23612;50.894;10.700;2023-05-16T04:16:47;10.20;99.90
20528;DHT22;23612;50.894;10.700;2023-05-16T04:19:13;10.20;99.90
20528;DHT22;23612;50.894;10.700;2023-05-16T04:21:38;10.30;99.90
20528;DHT22;23612;50.894;10.700;2023-05-16T04:24:04;10.30;99.90
20528;DHT22;23612;50.894;10.700;2023-05-16T04:26:30;10.30;99.90
20528;DHT22;23612;50.894;10.700;2023-05-16T04:28:56;10.30;99.90
20528;DHT22;23612;50.894;10.700;2023-05-16T04:31:24;10.30;99.90
20528;DHT22;23612;50.894;10.700;2023-05-16T04:33:49;10.30;99.90
20528;DHT22;23612;50.894;10.700;2023-05-16T04:36:15;10.30;99.90
20528;DHT22;23612;50.894;10.700;2023-05-16T04:38:40;10.20;99.90
20528;DHT22;23612;50.894;10.700;2023-05-16T04:41:06;10.10;99.90
20528;DHT22;23612;50.894;10.700;2023-05-16T04:43:31;10.00;99.90
20528;DHT22;23612;50.894;10.700;2023-05-16T04:45:57;10.10;99.90
20528;DHT22;23612;50.894;10.700;2023-05-16T04:48:23;10.10;99.90
20528;DHT22;23612;50.894;10.700;2023-05-16T04:50:49;10.00;99.90
20528;DHT22;23612;50.894;10.700;2023-05-16T04:53:14;10.10;99.90
20528;DHT22;23612;50.894;10.700;2023-05-16T04:55:40;10.10;99.90
20528;DHT22;23612;50.894;10.700;2023-05-16T04:58:05;10.10;99.90
20528;DHT22;23612;50.894;10.700;2023-05-16T05:00:31;10.10;99.90
20528;DHT22;23612;50.894;10.700;2023-05-16T05:02:56;10.10;99.90
20528;DHT22;23612;50.894;10.700;2023-05-16T05:05:22;10.00;99.90
20528;DHT22;23612;50.894;10.700;2023-05-16T05:07:47;10.00;99.90
20528;DHT22;23612;50.894;10.700;2023-05-16T05:10:13;10.10;99.90
20528;DHT22;23612;50.894;10.700;2023-05-16T05:12:39;10.10;99.90
20528;DHT22;23612;50.894;10.700;2023-05-16T05:15:05;10.00;99.90
20528;DHT22;23612;50.894;10.700;2023-05-16T05:17:31;10.10;99.90
20528;DHT22;23612;50.894;10.700;2023-05-16T05:19:56;10.10;99.90
20528;DHT22;23612;50.894;10.700;2023-05-16T05:22:22;10.10;99.90
20528;DHT22;23612;50.894;10.700;2023-05-16T05:24:47;10.10;99.90
20528;DHT22;23612;50.894;10.700;2023-05-16T05:27:13;10.10;99.90
20528;DHT22;23612;50.894;10.700;2023-05-16T05:29:38;10.10;99.90
20528;DHT22;23612;50.894;10.700;2023-05-16T05:32:04;10.10;99.90
20528;DHT22;23612;50.894;10.700;2023-05-16T05:34:29;10.10;99.90
20528;DHT22;23612;50.894;10.700;2023-05-16T05:36:55;10.00;99.90
20528;DHT22;23612;50.894;10.700;2023-05-16T05:39:21;10.00;99.90
20528;DHT22;23612;50.894;10.700;2023-05-16T05:41:47;10.00;99.90
20528;DHT22;23612;50.894;10.700;2023-05-16T05:44:12;10.00;99.90
20528;DHT22;23612;50.894;10.700;2023-05-16T05:46:38;10.00;99.90
20528;DHT22;23612;50.894;10.700;2023-05-16T05:49:04;10.00;99.90
20528;DHT22;23612;50.894;10.700;2023-05-16T05:51:30;9.90;99.90
20528;DHT22;23612;50.894;10.700;2023-05-16T05:53:55;9.90;99.90
20528;DHT22;23612;50.894;10.700;2023-05-16T05:56:21;9.90;99.90
20528;DHT22;23612;50.894;10.700;2023-05-16T05:58:49;9.90;99.90
20528;DHT22;23612;50.894;10.700;2023-05-16T06:01:15;10.00;99.90
20528;DHT22;23612;50.894;10.700;2023-05-16T06:03:41;10.00;99.90
20528;DHT22;23612;50.894;10.700;2023-05-16T06:06:07;9.90;99.90
20528;DHT22;23612;50.894;10.700;2023-05-16T06:08:33;9.90;99.90
20528;DHT22;23612;50.894;10.700;2023-05-16T06:10:58;9.80;99.90
20528;DHT22;23612;50.894;10.700;2023-05-16T06:13:24;9.80;99.90
20528;DHT22;23612;50.894;10.700;2023-05-16T06:15:53;9.70;99.90
20528;DHT22;23612;50.894;10.700;2023-05-16T06:18:22;9.70;99.90
20528;DHT22;23612;50.894;10.700;2023-05-16T06:20:47;9.70;99.90
20528;DHT22;23612;50.894;10.700;2023-05-16T06:23:13;9.70;99.90
20528;DHT22;23612;50.894;10.700;2023-05-16T06:25:38;9.70;99.90
20528;DHT22;23612;50.894;10.700;2023-05-16T06:28:04;9.70;99.90
20528;DHT22;23612;50.894;10.700;2023-05-16T06:30:29;9.70;99.90
20528;DHT22;23612;50.894;10.700;2023-05-16T06:32:55;9.70;99.90
20528;DHT22;23612;50.894;10.700;2023-05-16T06:35:21;9.60;99.90
20528;DHT22;23612;50.894;10.700;2023-05-16T06:37:47;9.70;99.90
20528;DHT22;23612;50.894;10.700;2023-05-16T06:40:13;9.70;99.90
20528;DHT22;23612;50.894;10.700;2023-05-16T06:42:38;9.70;99.90
20528;DHT22;23612;50.894;10.700;2023-05-16T06:45:04;9.70;99.90
20528;DHT22;23612;50.894;10.700;2023-05-16T06:47:30;9.70;99.90
20528;DHT22;23612;50.894;10.700;2023-05-16T06:49:55;9.70;99.90
20528;DHT22;23612;50.894;10.700;2023-05-16T06:52:21;9.70;99.90
20528;DHT22;23612;50.894;10.700;2023-05-16T06:54:46;9.80;99.90
20528;DHT22;23612;50.894;10.700;2023-05-16T06:57:12;9.80;99.90
20528;DHT22;23612;50.894;10.700;2023-05-16T06:59:38;9.80;99.90
20528;DHT22;23612;50.894;10.700;2023-05-16T07:02:04;10.00;99.90
20528;DHT22;23612;50.894;10.700;2023-05-16T07:04:29;10.10;99.90
20528;DHT22;23612;50.894;10.700;2023-05-16T07:06:55;10.20;99.90
20528;DHT22;23612;50.894;10.700;2023-05-16T07:09:21;10.40;99.90
20528;DHT22;23612;50.894;10.700;2023-05-16T07:11:46;10.60;99.90
20528;DHT22;23612;50.894;10.700;2023-05-16T07:14:11;10.70;99.90
20528;DHT22;23612;50.894;10.700;2023-05-16T07:16:37;10.80;99.90
20528;DHT22;23612;50.894;10.700;2023-05-16T07:19:03;11.00;99.90
20528;DHT22;23612;50.894;10.700;2023-05-16T07:21:28;11.10;99.90
20528;DHT22;23612;50.894;10.700;2023-05-16T07:23:54;11.20;99.90
20528;DHT22;23612;50.894;10.700;2023-05-16T07:26:19;11.20;99.90
20528;DHT22;23612;50.894;10.700;2023-05-16T07:28:48;11.10;99.90
20528;DHT22;23612;50.894;10.700;2023-05-16T07:31:13;11.30;99.90
20528;DHT22;23612;50.894;10.700;2023-05-16T07:33:39;11.40;99.90
20528;DHT22;23612;50.894;10.700;2023-05-16T07:36:05;11.40;99.90
20528;DHT22;23612;50.894;10.700;2023-05-16T07:38:30;11.40;99.90
20528;DHT22;23612;50.894;10.700;2023-05-16T07:40:56;11.30;99.90
20528;DHT22;23612;50.894;10.700;2023-05-16T07:43:21;11.30;99.90
20528;DHT22;23612;50.894;10.700;2023-05-16T07:45:47;11.20;99.90
20528;DHT22;23612;50.894;10.700;2023-05-16T07:48:12;11.10;99.90
20528;DHT22;23612;50.894;10.700;2023-05-16T07:50:38;11.10;99.90
20528;DHT22;23612;50.894;10.700;2023-05-16T07:53:03;11.00;99.90
20528;DHT22;23612;50.894;10.700;2023-05-16T07:55:29;11.10;99.90
20528;DHT22;23612;50.894;10.700;2023-05-16T07:57:54;11.10;99.90
20528;DHT22;23612;50.894;10.700;2023-05-16T08:00:20;11.00;99.90
20528;DHT22;23612;50.894;10.700;2023-05-16T08:02:46;10.90;99.90
20528;DHT22;23612;50.894;10.700;2023-05-16T08:05:11;10.90;99.90
20528;DHT22;23612;50.894;10.700;2023-05-16T08:07:37;10.80;99.90
20528;DHT22;23612;50.894;10.700;2023-05-16T08:10:03;10.60;99.90
20528;DHT22;23612;50.894;10.700;2023-05-16T08:12:28;10.50;99.90
20528;DHT22;23612;50.894;10.700;2023-05-16T08:14:55;10.50;99.90
20528;DHT22;23612;50.894;10.700;2023-05-16T08:17:21;10.40;99.90
20528;DHT22;23612;50.894;10.700;2023-05-16T08:19:46;10.40;99.90
20528;DHT22;23612;50.894;10.700;2023-05-16T08:22:12;10.40;99.90
20528;DHT22;23612;50.894;10.700;2023-05-16T08:24:37;10.40;99.90
20528;DHT22;23612;50.894;10.700;2023-05-16T08:27:03;10.40;99.90
20528;DHT22;23612;50.894;10.700;2023-05-16T08:29:28;10.60;99.90
20528;DHT22;23612;50.894;10.700;2023-05-16T08:31:54;10.70;99.90
20528;DHT22;23612;50.894;10.700;2023-05-16T08:34:20;10.80;99.90
20528;DHT22;23612;50.894;10.700;2023-05-16T08:36:45;10.90;99.90
20528;DHT22;23612;50.894;10.700;2023-05-16T08:39:11;11.10;99.90
20528;DHT22;23612;50.894;10.700;2023-05-16T08:41:38;11.30;99.90
20528;DHT22;23612;50.894;10.700;2023-05-16T08:44:03;11.50;99.90
20528;DHT22;23612;50.894;10.700;2023-05-16T08:46:31;11.40;99.90
20528;DHT22;23612;50.894;10.700;2023-05-16T08:48:58;11.30;99.90
20528;DHT22;23612;50.894;10.700;2023-05-16T08:51:26;11.50;99.90
20528;DHT22;23612;50.894;10.700;2023-05-16T08:54:03;11.50;99.90
20528;DHT22;23612;50.894;10.700;2023-05-16T08:56:31;11.50;99.90
20528;DHT22;23612;50.894;10.700;2023-05-16T08:58:58;11.60;99.90
20528;DHT22;23612;50.894;10.700;2023-05-16T09:01:23;11.50;99.90
20528;DHT22;23612;50.894;10.700;2023-05-16T09:03:49;11.50;99.90
20528;DHT22;23612;50.894;10.700;2023-05-16T09:06:16;11.50;99.90
20528;DHT22;23612;50.894;10.700;2023-05-16T09:08:41;11.40;99.90
20528;DHT22;23612;50.894;10.700;2023-05-16T09:11:08;11.30;99.90
20528;DHT22;23612;50.894;10.700;2023-05-16T09:13:34;11.20;99.90
20528;DHT22;23612;50.894;10.700;2023-05-16T09:16:16;11.30;99.90
20528;DHT22;23612;50.894;10.700;2023-05-16T09:18:44;11.30;99.90
20528;DHT22;23612;50.894;10.700;2023-05-16T09:21:11;11.80;99.90
20528;DHT22;23612;50.894;10.700;2023-05-16T09:23:36;12.10;99.90
20528;DHT22;23612;50.894;10.700;2023-05-16T09:26:04;12.60;99.90
20528;DHT22;23612;50.894;10.700;2023-05-16T09:28:31;13.00;99.90
20528;DHT22;23612;50.894;10.700;2023-05-16T09:30:56;13.10;99.90
20528;DHT22;23612;50.894;10.700;2023-05-16T09:33:26;13.60;99.90
20528;DHT22;23612;50.894;10.700;2023-05-16T09:36:00;13.60;99.90
20528;DHT22;23612;50.894;10.700;2023-05-16T09:38:27;13.70;99.90
20528;DHT22;23612;50.894;10.700;2023-05-16T09:40:53;14.00;99.90
20528;DHT22;23612;50.894;10.700;2023-05-16T09:43:23;14.10;99.90
20528;DHT22;23612;50.894;10.700;2023-05-16T09:45:49;13.70;99.90
20528;DHT22;23612;50.894;10.700;2023-05-16T09:48:15;13.00;99.90
20528;DHT22;23612;50.894;10.700;2023-05-16T09:50:47;12.40;99.90
20528;DHT22;23612;50.894;10.700;2023-05-16T09:53:15;12.00;99.90
20528;DHT22;23612;50.894;10.700;2023-05-16T09:55:40;11.90;99.90
20528;DHT22;23612;50.894;10.700;2023-05-16T09:58:06;11.80;99.90
20528;DHT22;23612;50.894;10.700;2023-05-16T10:00:32;11.60;99.90
20528;DHT22;23612;50.894;10.700;2023-05-16T10:02:59;11.30;99.90
20528;DHT22;23612;50.894;10.700;2023-05-16T10:05:26;11.30;99.90
20528;DHT22;23612;50.894;10.700;2023-05-16T10:07:54;11.20;99.90
20528;DHT22;23612;50.894;10.700;2023-05-16T10:10:21;11.20;99.90
20528;DHT22;23612;50.894;10.700;2023-05-16T10:12:47;11.10;99.90
20528;DHT22;23612;50.894;10.700;2023-05-16T10:15:13;11.20;99.90
20528;DHT22;23612;50.894;10.700;2023-05-16T10:17:42;11.40;99.90
20528;DHT22;23612;50.894;10.700;2023-05-16T10:20:10;11.60;99.90
20528;DHT22;23612;50.894;10.700;2023-05-16T10:22:41;12.10;99.90
20528;DHT22;23612;50.894;10.700;2023-05-16T10:25:14;12.60;99.90
20528;DHT22;23612;50.894;10.700;2023-05-16T10:27:41;13.10;99.90
20528;DHT22;23612;50.894;10.700;2023-05-16T10:30:09;13.20;99.90
20528;DHT22;23612;50.894;10.700;2023-05-16T10:32:36;13.00;99.90
20528;DHT22;23612;50.894;10.700;2023-05-16T10:35:03;13.10;99.90
20528;DHT22;23612;50.894;10.700;2023-05-16T10:37:30;13.20;99.90
20528;DHT22;23612;50.894;10.700;2023-05-16T10:39:58;13.10;99.90
20528;DHT22;23612;50.894;10.700;2023-05-16T10:42:23;12.90;99.90
20528;DHT22;23612;50.894;10.700;2023-05-16T10:44:53;12.40;99.90
20528;DHT22;23612;50.894;10.700;2023-05-16T10:47:18;12.10;99.90
20528;DHT22;23612;50.894;10.700;2023-05-16T10:49:44;12.00;99.90
20528;DHT22;23612;50.894;10.700;2023-05-16T10:52:11;11.90;99.90
20528;DHT22;23612;50.894;10.700;2023-05-16T10:54:42;12.00;99.90
20528;DHT22;23612;50.894;10.700;2023-05-16T10:57:11;12.20;99.90
20528;DHT22;23612;50.894;10.700;2023-05-16T10:59:46;12.30;99.90
20528;DHT22;23612;50.894;10.700;2023-05-16T11:02:28;12.30;99.90
20528;DHT22;23612;50.894;10.700;2023-05-16T11:04:56;12.40;99.90
20528;DHT22;23612;50.894;10.700;2023-05-16T11:07:24;12.60;99.90
20528;DHT22;23612;50.894;10.700;2023-05-16T11:10:06;12.80;99.90
20528;DHT22;23612;50.894;10.700;2023-05-16T11:12:51;13.10;99.90
20528;DHT22;23612;50.894;10.700;2023-05-16T11:15:24;13.20;99.90
20528;DHT22;23612;50.894;10.700;2023-05-16T11:18:02;13.60;99.90
20528;DHT22;23612;50.894;10.700;2023-05-16T11:20:33;13.70;99.90
20528;DHT22;23612;50.894;10.700;2023-05-16T11:25:41;14.20;99.90
20528;DHT22;23612;50.894;10.700;2023-05-16T11:28:07;14.00;99.90
20528;DHT22;23612;50.894;10.700;2023-05-16T11:30:34;14.00;99.90
20528;DHT22;23612;50.894;10.700;2023-05-16T11:33:00;13.90;99.90
20528;DHT22;23612;50.894;10.700;2023-05-16T11:35:25;13.90;99.90
20528;DHT22;23612;50.894;10.700;2023-05-16T11:37:51;13.80;99.90
20528;DHT22;23612;50.894;10.700;2023-05-16T11:40:16;14.00;99.90
20528;DHT22;23612;50.894;10.700;2023-05-16T11:42:45;14.00;99.90
20528;DHT22;23612;50.894;10.700;2023-05-16T11:45:16;14.10;99.90
20528;DHT22;23612;50.894;10.700;2023-05-16T11:47:43;14.20;99.90
20528;DHT22;23612;50.894;10.700;2023-05-16T11:50:17;14.20;99.90
20528;DHT22;23612;50.894;10.700;2023-05-16T11:52:45;14.30;99.90
20528;DHT22;23612;50.894;10.700;2023-05-16T11:55:11;14.50;99.90
20528;DHT22;23612;50.894;10.700;2023-05-16T11:57:38;14.70;99.90
20528;DHT22;23612;50.894;10.700;2023-05-16T12:00:04;14.80;99.90
20528;DHT22;23612;50.894;10.700;2023-05-16T12:02:32;15.10;99.90
20528;DHT22;23612;50.894;10.700;2023-05-16T12:04:57;15.40;99.90
20528;DHT22;23612;50.894;10.700;2023-05-16T12:07:27;15.40;99.90
20528;DHT22;23612;50.894;10.700;2023-05-16T12:09:53;15.40;99.90
20528;DHT22;23612;50.894;10.700;2023-05-16T12:12:20;15.30;99.90
20528;DHT22;23612;50.894;10.700;2023-05-16T12:14:46;15.30;99.90
20528;DHT22;23612;50.894;10.700;2023-05-16T12:17:12;15.30;99.90
20528;DHT22;23612;50.894;10.700;2023-05-16T12:19:37;15.50;99.90
20528;DHT22;23612;50.894;10.700;2023-05-16T12:22:03;15.60;99.90
20528;DHT22;23612;50.894;10.700;2023-05-16T12:24:29;15.80;99.90
20528;DHT22;23612;50.894;10.700;2023-05-16T12:26:56;16.50;99.90
20528;DHT22;23612;50.894;10.700;2023-05-16T12:29:21;16.90;99.90
20528;DHT22;23612;50.894;10.700;2023-05-16T12:31:52;17.20;99.90
20528;DHT22;23612;50.894;10.700;2023-05-16T12:34:18;17.30;99.90
20528;DHT22;23612;50.894;10.700;2023-05-16T12:36:49;17.00;99.90
20528;DHT22;23612;50.894;10.700;2023-05-16T12:39:15;17.40;99.90
20528;DHT22;23612;50.894;10.700;2023-05-16T12:41:42;17.00;99.90
20528;DHT22;23612;50.894;10.700;2023-05-16T12:44:29;16.80;99.90
20528;DHT22;23612;50.894;10.700;2023-05-16T12:46:54;16.30;99.90
20528;DHT22;23612;50.894;10.700;2023-05-16T12:49:22;15.90;99.90
20528;DHT22;23612;50.894;10.700;2023-05-16T12:51:52;15.90;99.90
20528;DHT22;23612;50.894;10.700;2023-05-16T12:54:18;15.50;99.90
20528;DHT22;23612;50.894;10.700;2023-05-16T12:56:44;15.30;99.90
20528;DHT22;23612;50.894;10.700;2023-05-16T12:59:10;15.30;99.90
20528;DHT22;23612;50.894;10.700;2023-05-16T13:01:39;15.10;99.90
20528;DHT22;23612;50.894;10.700;2023-05-16T13:04:05;14.60;99.90
20528;DHT22;23612;50.894;10.700;2023-05-16T13:06:31;14.60;99.90
20528;DHT22;23612;50.894;10.700;2023-05-16T13:08:56;14.50;99.90
20528;DHT22;23612;50.894;10.700;2023-05-16T13:11:23;14.40;99.90
20528;DHT22;23612;50.894;10.700;2023-05-16T13:13:48;14.60;99.90
20528;DHT22;23612;50.894;10.700;2023-05-16T13:16:14;14.60;99.90
20528;DHT22;23612;50.894;10.700;2023-05-16T13:18:40;14.90;99.90
20528;DHT22;23612;50.894;10.700;2023-05-16T13:21:06;15.00;99.90
20528;DHT22;23612;50.894;10.700;2023-05-16T13:23:31;15.50;99.90
20528;DHT22;23612;50.894;10.700;2023-05-16T13:25:57;16.30;99.90
20528;DHT22;23612;50.894;10.700;2023-05-16T13:28:23;16.40;99.90
20528;DHT22;23612;50.894;10.700;2023-05-16T13:30:49;16.00;99.90
20528;DHT22;23612;50.894;10.700;2023-05-16T13:33:15;15.80;99.90
20528;DHT22;23612;50.894;10.700;2023-05-16T13:35:42;15.50;99.90
20528;DHT22;23612;50.894;10.700;2023-05-16T13:38:07;15.60;99.90
20528;DHT22;23612;50.894;10.700;2023-05-16T13:40:33;16.00;99.90
20528;DHT22;23612;50.894;10.700;2023-05-16T13:42:59;16.30;99.90
20528;DHT22;23612;50.894;10.700;2023-05-16T13:45:26;16.10;99.90
20528;DHT22;23612;50.894;10.700;2023-05-16T13:47:51;16.00;99.90
20528;DHT22;23612;50.894;10.700;2023-05-16T13:50:17;16.10;99.90
20528;DHT22;23612;50.894;10.700;2023-05-16T13:52:42;16.40;99.90
20528;DHT22;23612;50.894;10.700;2023-05-16T13:55:08;16.40;99.90
20528;DHT22;23612;50.894;10.700;2023-05-16T13:57:34;16.40;99.90
20528;DHT22;23612;50.894;10.700;2023-05-16T14:00:00;16.00;99.90
20528;DHT22;23612;50.894;10.700;2023-05-16T14:02:25;16.10;99.90
20528;DHT22;23612;50.894;10.700;2023-05-16T14:04:52;16.40;99.90
20528;DHT22;23612;50.894;10.700;2023-05-16T14:07:17;16.70;99.90
20528;DHT22;23612;50.894;10.700;2023-05-16T14:09:43;16.60;99.90
20528;DHT22;23612;50.894;10.700;2023-05-16T14:12:09;16.30;99.90
20528;DHT22;23612;50.894;10.700;2023-05-16T14:14:35;15.90;99.90
20528;DHT22;23612;50.894;10.700;2023-05-16T14:17:01;15.70;99.90
20528;DHT22;23612;50.894;10.700;2023-05-16T14:19:28;15.70;99.90
20528;DHT22;23612;50.894;10.700;2023-05-16T14:21:54;15.90;99.90
20528;DHT22;23612;50.894;10.700;2023-05-16T14:24:20;16.10;99.90
20528;DHT22;23612;50.894;10.700;2023-05-16T14:26:45;16.20;99.90
20528;DHT22;23612;50.894;10.700;2023-05-16T14:29:11;15.90;99.90
20528;DHT22;23612;50.894;10.700;2023-05-16T14:31:37;15.60;99.90
20528;DHT22;23612;50.894;10.700;2023-05-16T14:34:03;15.40;99.90
20528;DHT22;23612;50.894;10.700;2023-05-16T14:36:28;15.20;99.90
20528;DHT22;23612;50.894;10.700;2023-05-16T14:38:54;15.40;99.90
20528;DHT22;23612;50.894;10.700;2023-05-16T14:41:20;15.40;99.90
20528;DHT22;23612;50.894;10.700;2023-05-16T14:43:46;15.70;99.90
20528;DHT22;23612;50.894;10.700;2023-05-16T14:46:12;15.80;99.90
20528;DHT22;23612;50.894;10.700;2023-05-16T14:48:38;15.50;99.90
20528;DHT22;23612;50.894;10.700;2023-05-16T14:51:03;15.30;99.90
20528;DHT22;23612;50.894;10.700;2023-05-16T14:53:29;15.10;99.90
20528;DHT22;23612;50.894;10.700;2023-05-16T14:55:55;14.80;99.90
20528;DHT22;23612;50.894;10.700;2023-05-16T14:58:20;15.00;99.90
20528;DHT22;23612;50.894;10.700;2023-05-16T15:00:46;15.00;99.90
20528;DHT22;23612;50.894;10.700;2023-05-16T15:03:11;15.00;99.90
20528;DHT22;23612;50.894;10.700;2023-05-16T15:05:36;14.90;99.90
20528;DHT22;23612;50.894;10.700;2023-05-16T15:08:02;14.80;99.90
20528;DHT22;23612;50.894;10.700;2023-05-16T15:10:28;14.60;99.90
20528;DHT22;23612;50.894;10.700;2023-05-16T15:12:53;14.60;99.90
20528;DHT22;23612;50.894;10.700;2023-05-16T15:15:19;14.70;99.90
20528;DHT22;23612;50.894;10.700;2023-05-16T15:17:44;14.60;99.90
20528;DHT22;23612;50.894;10.700;2023-05-16T15:20:10;14.60;99.90